sensor_id;sensor_type;location;lat;lon;timestamp;P1;durP1;ratioP1;P2;durP2;ratioP2
7487;SDS011;3785;52.260;4.728;2023-05-20T00:01:00;5.22;;;2.70;;
7487;SDS011;3785;52.260;4.728;2023-05-20T00:04:21;4.22;;;1.98;;
7487;SDS011;3785;52.260;4.728;2023-05-20T00:07:42;5.72;;;2.17;;
7487;SDS011;3785;52.260;4.728;2023-05-20T00:11:02;2.92;;;1.83;;
7487;SDS011;3785;52.260;4.728;2023-05-20T00:14:23;5.43;;;2.25;;
7487;SDS011;3785;52.260;4.728;2023-05-20T00:17:43;4.55;;;2.83;;
7487;SDS011;3785;52.260;4.728;2023-05-20T00:21:04;4.22;;;2.20;;
7487;SDS011;3785;52.260;4.728;2023-05-20T00:24:25;8.82;;;2.22;;
7487;SDS011;3785;52.260;4.728;2023-05-20T00:27:46;3.00;;;2.13;;
7487;SDS011;3785;52.260;4.728;2023-05-20T00:31:06;4.10;;;2.40;;
7487;SDS011;3785;52.260;4.728;2023-05-20T00:34:27;6.05;;;2.50;;
7487;SDS011;3785;52.260;4.728;2023-05-20T00:37:48;5.32;;;2.33;;
7487;SDS011;3785;52.260;4.728;2023-05-20T00:41:08;6.28;;;2.47;;
7487;SDS011;3785;52.260;4.728;2023-05-20T00:44:29;5.60;;;2.53;;
7487;SDS011;3785;52.260;4.728;2023-05-20T00:47:49;7.10;;;2.35;;
7487;SDS011;3785;52.260;4.728;2023-05-20T00:51:10;4.20;;;2.22;;
7487;SDS011;3785;52.260;4.728;2023-05-20T00:54:32;5.40;;;2.53;;
7487;SDS011;3785;52.260;4.728;2023-05-20T00:57:52;4.32;;;2.35;;
7487;SDS011;3785;52.260;4.728;2023-05-20T01:01:13;3.83;;;2.28;;
7487;SDS011;3785;52.260;4.728;2023-05-20T01:04:34;4.22;;;2.50;;
7487;SDS011;3785;52.260;4.728;2023-05-20T01:07:54;3.92;;;2.20;;
7487;SDS011;3785;52.260;4.728;2023-05-20T01:11:19;3.88;;;2.45;;
7487;SDS011;3785;52.260;4.728;2023-05-20T01:14:58;5.40;;;2.42;;
7487;SDS011;3785;52.260;4.728;2023-05-20T01:18:29;5.72;;;2.63;;
7487;SDS011;3785;52.260;4.728;2023-05-20T01:21:52;5.78;;;2.75;;
7487;SDS011;3785;52.260;4.728;2023-05-20T01:25:13;4.20;;;2.25;;
7487;SDS011;3785;52.260;4.728;2023-05-20T01:28:33;5.72;;;2.83;;
7487;SDS011;3785;52.260;4.728;2023-05-20T01:31:55;5.40;;;2.80;;
7487;SDS011;3785;52.260;4.728;2023-05-20T01:35:17;5.18;;;2.50;;
7487;SDS011;3785;52.260;4.728;2023-05-20T01:38:39;5.70;;;2.67;;
7487;SDS011;3785;52.260;4.728;2023-05-20T01:42:00;4.10;;;2.65;;
7487;SDS011;3785;52.260;4.728;2023-05-20T01:45:22;6.65;;;2.35;;
7487;SDS011;3785;52.260;4.728;2023-05-20T01:48:43;4.88;;;2.60;;
7487;SDS011;3785;52.260;4.728;2023-05-20T01:52:04;5.43;;;2.53;;
7487;SDS011;3785;52.260;4.728;2023-05-20T01:55:25;4.55;;;2.40;;
7487;SDS011;3785;52.260;4.728;2023-05-20T01:58:45;4.78;;;2.75;;
7487;SDS011;3785;52.260;4.728;2023-05-20T02:02:06;5.15;;;2.60;;
7487;SDS011;3785;52.260;4.728;2023-05-20T02:05:27;5.07;;;2.72;;
7487;SDS011;3785;52.260;4.728;2023-05-20T02:08:47;4.85;;;2.65;;
7487;SDS011;3785;52.260;4.728;2023-05-20T02:12:08;5.45;;;2.60;;
7487;SDS011;3785;52.260;4.728;2023-05-20T02:15:29;7.00;;;2.50;;
7487;SDS011;3785;52.260;4.728;2023-05-20T02:18:49;4.50;;;2.28;;
7487;SDS011;3785;52.260;4.728;2023-05-20T02:22:12;6.18;;;2.63;;
7487;SDS011;3785;52.260;4.728;2023-05-20T02:25:33;5.22;;;2.38;;
7487;SDS011;3785;52.260;4.728;2023-05-20T02:28:53;5.82;;;2.90;;
7487;SDS011;3785;52.260;4.728;2023-05-20T02:32:14;6.10;;;2.92;;
7487;SDS011;3785;52.260;4.728;2023-05-20T02:35:34;8.77;;;2.95;;
7487;SDS011;3785;52.260;4.728;2023-05-20T02:38:55;5.82;;;2.83;;
7487;SDS011;3785;52.260;4.728;2023-05-20T02:42:16;5.10;;;2.47;;
7487;SDS011;3785;52.260;4.728;2023-05-20T02:45:36;6.45;;;2.33;;
7487;SDS011;3785;52.260;4.728;2023-05-20T02:48:57;4.13;;;2.38;;
7487;SDS011;3785;52.260;4.728;2023-05-20T02:52:18;5.00;;;2.85;;
7487;SDS011;3785;52.260;4.728;2023-05-20T02:55:39;6.65;;;2.70;;
7487;SDS011;3785;52.260;4.728;2023-05-20T02:58:59;4.75;;;2.55;;
7487;SDS011;3785;52.260;4.728;2023-05-20T03:02:20;5.38;;;2.83;;
7487;SDS011;3785;52.260;4.728;2023-05-20T03:05:42;8.65;;;2.95;;
7487;SDS011;3785;52.260;4.728;2023-05-20T03:09:05;4.85;;;2.47;;
7487;SDS011;3785;52.260;4.728;2023-05-20T03:12:25;5.95;;;2.80;;
7487;SDS011;3785;52.260;4.728;2023-05-20T03:15:46;4.93;;;2.50;;
7487;SDS011;3785;52.260;4.728;2023-05-20T03:19:06;7.15;;;2.95;;
7487;SDS011;3785;52.260;4.728;2023-05-20T03:22:27;6.05;;;3.10;;
7487;SDS011;3785;52.260;4.728;2023-05-20T03:25:48;6.35;;;3.45;;
7487;SDS011;3785;52.260;4.728;2023-05-20T03:29:08;6.05;;;3.40;;
7487;SDS011;3785;52.260;4.728;2023-05-20T03:32:29;5.75;;;3.22;;
7487;SDS011;3785;52.260;4.728;2023-05-20T03:35:50;7.25;;;3.33;;
7487;SDS011;3785;52.260;4.728;2023-05-20T03:39:10;6.32;;;3.13;;
7487;SDS011;3785;52.260;4.728;2023-05-20T03:42:32;5.53;;;3.13;;
7487;SDS011;3785;52.260;4.728;2023-05-20T03:45:53;5.82;;;3.20;;
7487;SDS011;3785;52.260;4.728;2023-05-20T03:49:13;4.45;;;2.70;;
7487;SDS011;3785;52.260;4.728;2023-05-20T03:52:34;4.55;;;2.60;;
7487;SDS011;3785;52.260;4.728;2023-05-20T03:55:54;5.63;;;3.00;;
7487;SDS011;3785;52.260;4.728;2023-05-20T03:59:15;5.90;;;3.08;;
7487;SDS011;3785;52.260;4.728;2023-05-20T04:02:36;8.40;;;3.70;;
7487;SDS011;3785;52.260;4.728;2023-05-20T04:05:57;5.28;;;3.58;;
7487;SDS011;3785;52.260;4.728;2023-05-20T04:09:17;8.73;;;3.60;;
7487;SDS011;3785;52.260;4.728;2023-05-20T04:12:38;8.20;;;4.25;;
7487;SDS011;3785;52.260;4.728;2023-05-20T04:15:59;6.68;;;3.20;;
7487;SDS011;3785;52.260;4.728;2023-05-20T04:19:20;6.35;;;3.38;;
7487;SDS011;3785;52.260;4.728;2023-05-20T04:22:45;7.63;;;3.88;;
7487;SDS011;3785;52.260;4.728;2023-05-20T04:26:07;7.35;;;3.60;;
7487;SDS011;3785;52.260;4.728;2023-05-20T04:29:27;7.35;;;3.78;;
7487;SDS011;3785;52.260;4.728;2023-05-20T04:32:49;6.85;;;3.78;;
7487;SDS011;3785;52.260;4.728;2023-05-20T04:36:10;6.20;;;4.15;;
7487;SDS011;3785;52.260;4.728;2023-05-20T04:39:34;5.88;;;3.53;;
7487;SDS011;3785;52.260;4.728;2023-05-20T04:42:55;6.47;;;4.15;;
7487;SDS011;3785;52.260;4.728;2023-05-20T04:46:17;6.38;;;3.85;;
7487;SDS011;3785;52.260;4.728;2023-05-20T04:49:39;6.65;;;4.45;;
7487;SDS011;3785;52.260;4.728;2023-05-20T04:53:00;7.60;;;3.75;;
7487;SDS011;3785;52.260;4.728;2023-05-20T04:56:20;9.45;;;4.00;;
7487;SDS011;3785;52.260;4.728;2023-05-20T04:59:41;7.75;;;4.85;;
7487;SDS011;3785;52.260;4.728;2023-05-20T05:03:02;7.70;;;4.82;;
7487;SDS011;3785;52.260;4.728;2023-05-20T05:06:23;7.20;;;3.95;;
7487;SDS011;3785;52.260;4.728;2023-05-20T05:09:43;9.88;;;4.55;;
7487;SDS011;3785;52.260;4.728;2023-05-20T05:13:04;6.43;;;4.22;;
7487;SDS011;3785;52.260;4.728;2023-05-20T05:16:24;5.78;;;3.60;;
7487;SDS011;3785;52.260;4.728;2023-05-20T05:19:45;7.70;;;4.43;;
7487;SDS011;3785;52.260;4.728;2023-05-20T05:23:05;7.30;;;5.00;;
7487;SDS011;3785;52.260;4.728;2023-05-20T05:26:26;9.73;;;4.00;;
7487;SDS011;3785;52.260;4.728;2023-05-20T05:29:47;7.07;;;3.88;;
7487;SDS011;3785;52.260;4.728;2023-05-20T05:33:07;6.88;;;3.13;;
7487;SDS011;3785;52.260;4.728;2023-05-20T05:36:31;7.95;;;3.67;;
7487;SDS011;3785;52.260;4.728;2023-05-20T05:39:52;8.38;;;3.33;;
7487;SDS011;3785;52.260;4.728;2023-05-20T05:43:13;5.13;;;2.97;;
7487;SDS011;3785;52.260;4.728;2023-05-20T05:46:33;5.57;;;2.50;;
7487;SDS011;3785;52.260;4.728;2023-05-20T05:49:54;4.82;;;2.20;;
7487;SDS011;3785;52.260;4.728;2023-05-20T05:53:15;4.90;;;2.97;;
7487;SDS011;3785;52.260;4.728;2023-05-20T05:56:35;5.72;;;2.60;;
7487;SDS011;3785;52.260;4.728;2023-05-20T05:59:56;4.18;;;2.58;;
7487;SDS011;3785;52.260;4.728;2023-05-20T06:03:16;4.03;;;2.40;;
7487;SDS011;3785;52.260;4.728;2023-05-20T06:06:37;5.20;;;2.40;;
7487;SDS011;3785;52.260;4.728;2023-05-20T06:09:57;3.03;;;2.20;;
7487;SDS011;3785;52.260;4.728;2023-05-20T06:13:18;4.80;;;2.38;;
7487;SDS011;3785;52.260;4.728;2023-05-20T06:16:39;3.55;;;2.30;;
7487;SDS011;3785;52.260;4.728;2023-05-20T06:19:59;4.78;;;2.38;;
7487;SDS011;3785;52.260;4.728;2023-05-20T06:23:20;3.53;;;2.20;;
7487;SDS011;3785;52.260;4.728;2023-05-20T06:26:41;4.13;;;2.17;;
7487;SDS011;3785;52.260;4.728;2023-05-20T06:30:01;3.33;;;1.75;;
7487;SDS011;3785;52.260;4.728;2023-05-20T06:33:22;4.25;;;2.38;;
7487;SDS011;3785;52.260;4.728;2023-05-20T06:36:46;3.70;;;2.03;;
7487;SDS011;3785;52.260;4.728;2023-05-20T06:40:07;4.82;;;2.05;;
7487;SDS011;3785;52.260;4.728;2023-05-20T06:43:28;3.85;;;2.10;;
7487;SDS011;3785;52.260;4.728;2023-05-20T06:46:48;4.60;;;1.85;;
7487;SDS011;3785;52.260;4.728;2023-05-20T06:50:09;3.83;;;2.00;;
7487;SDS011;3785;52.260;4.728;2023-05-20T06:53:30;4.55;;;1.85;;
7487;SDS011;3785;52.260;4.728;2023-05-20T06:56:50;6.00;;;2.33;;
7487;SDS011;3785;52.260;4.728;2023-05-20T07:00:11;2.67;;;1.88;;
7487;SDS011;3785;52.260;4.728;2023-05-20T07:03:35;4.38;;;1.92;;
7487;SDS011;3785;52.260;4.728;2023-05-20T07:06:55;3.28;;;1.98;;
7487;SDS011;3785;52.260;4.728;2023-05-20T07:10:16;3.05;;;1.67;;
7487;SDS011;3785;52.260;4.728;2023-05-20T07:13:37;3.75;;;1.88;;
7487;SDS011;3785;52.260;4.728;2023-05-20T07:16:57;4.65;;;1.80;;
7487;SDS011;3785;52.260;4.728;2023-05-20T07:20:18;5.72;;;2.72;;
7487;SDS011;3785;52.260;4.728;2023-05-20T07:23:38;2.83;;;1.75;;
7487;SDS011;3785;52.260;4.728;2023-05-20T07:26:59;2.92;;;1.80;;
7487;SDS011;3785;52.260;4.728;2023-05-20T07:30:20;4.15;;;1.80;;
7487;SDS011;3785;52.260;4.728;2023-05-20T07:33:40;2.58;;;1.85;;
7487;SDS011;3785;52.260;4.728;2023-05-20T07:37:01;3.88;;;2.00;;
7487;SDS011;3785;52.260;4.728;2023-05-20T07:40:21;3.47;;;1.90;;
7487;SDS011;3785;52.260;4.728;2023-05-20T07:43:42;4.68;;;2.22;;
7487;SDS011;3785;52.260;4.728;2023-05-20T07:47:02;2.70;;;1.67;;
7487;SDS011;3785;52.260;4.728;2023-05-20T07:50:23;3.67;;;1.70;;
7487;SDS011;3785;52.260;4.728;2023-05-20T07:53:44;2.03;;;1.52;;
7487;SDS011;3785;52.260;4.728;2023-05-20T07:57:04;3.13;;;1.65;;
7487;SDS011;3785;52.260;4.728;2023-05-20T08:00:25;4.00;;;2.00;;
7487;SDS011;3785;52.260;4.728;2023-05-20T08:03:46;3.15;;;1.83;;
7487;SDS011;3785;52.260;4.728;2023-05-20T08:07:07;4.32;;;1.98;;
7487;SDS011;3785;52.260;4.728;2023-05-20T08:10:27;3.33;;;1.88;;
7487;SDS011;3785;52.260;4.728;2023-05-20T08:13:48;3.67;;;1.95;;
7487;SDS011;3785;52.260;4.728;2023-05-20T08:17:08;3.45;;;1.92;;
7487;SDS011;3785;52.260;4.728;2023-05-20T08:20:29;4.88;;;1.95;;
7487;SDS011;3785;52.260;4.728;2023-05-20T08:23:50;3.80;;;2.10;;
7487;SDS011;3785;52.260;4.728;2023-05-20T08:27:10;7.43;;;1.83;;
7487;SDS011;3785;52.260;4.728;2023-05-20T08:30:31;2.88;;;1.90;;
7487;SDS011;3785;52.260;4.728;2023-05-20T08:33:53;2.33;;;1.50;;
7487;SDS011;3785;52.260;4.728;2023-05-20T08:37:13;3.22;;;1.90;;
7487;SDS011;3785;52.260;4.728;2023-05-20T08:40:34;4.22;;;1.80;;
7487;SDS011;3785;52.260;4.728;2023-05-20T08:43:55;4.55;;;2.17;;
7487;SDS011;3785;52.260;4.728;2023-05-20T08:47:16;2.95;;;1.80;;
7487;SDS011;3785;52.260;4.728;2023-05-20T08:50:38;2.40;;;1.60;;
7487;SDS011;3785;52.260;4.728;2023-05-20T08:53:59;2.75;;;1.88;;
7487;SDS011;3785;52.260;4.728;2023-05-20T08:57:19;2.65;;;1.55;;
7487;SDS011;3785;52.260;4.728;2023-05-20T09:00:41;3.92;;;1.83;;
7487;SDS011;3785;52.260;4.728;2023-05-20T09:04:01;3.60;;;1.77;;
7487;SDS011;3785;52.260;4.728;2023-05-20T09:07:26;2.97;;;1.50;;
7487;SDS011;3785;52.260;4.728;2023-05-20T09:10:47;2.45;;;1.50;;
7487;SDS011;3785;52.260;4.728;2023-05-20T09:14:11;3.88;;;1.60;;
7487;SDS011;3785;52.260;4.728;2023-05-20T09:17:35;2.85;;;1.60;;
7487;SDS011;3785;52.260;4.728;2023-05-20T09:20:56;3.17;;;1.50;;
7487;SDS011;3785;52.260;4.728;2023-05-20T09:24:19;1.90;;;1.20;;
7487;SDS011;3785;52.260;4.728;2023-05-20T09:27:41;2.30;;;1.38;;
7487;SDS011;3785;52.260;4.728;2023-05-20T09:31:02;2.63;;;1.20;;
7487;SDS011;3785;52.260;4.728;2023-05-20T09:34:25;2.35;;;1.13;;
7487;SDS011;3785;52.260;4.728;2023-05-20T09:37:46;3.25;;;1.50;;
7487;SDS011;3785;52.260;4.728;2023-05-20T09:41:10;3.40;;;1.35;;
7487;SDS011;3785;52.260;4.728;2023-05-20T09:44:32;3.17;;;1.15;;
7487;SDS011;3785;52.260;4.728;2023-05-20T09:47:53;2.42;;;1.30;;
7487;SDS011;3785;52.260;4.728;2023-05-20T09:51:15;2.00;;;1.08;;
7487;SDS011;3785;52.260;4.728;2023-05-20T09:54:36;4.05;;;1.30;;
7487;SDS011;3785;52.260;4.728;2023-05-20T09:57:57;2.55;;;1.02;;
7487;SDS011;3785;52.260;4.728;2023-05-20T10:01:21;2.42;;;1.20;;
7487;SDS011;3785;52.260;4.728;2023-05-20T10:04:43;2.55;;;1.40;;
7487;SDS011;3785;52.260;4.728;2023-05-20T10:08:12;1.50;;;1.05;;
7487;SDS011;3785;52.260;4.728;2023-05-20T10:11:47;3.15;;;1.10;;
7487;SDS011;3785;52.260;4.728;2023-05-20T10:22:32;2.50;;;1.30;;
7487;SDS011;3785;52.260;4.728;2023-05-20T10:25:53;5.22;;;1.35;;
7487;SDS011;3785;52.260;4.728;2023-05-20T10:29:18;3.33;;;1.30;;
7487;SDS011;3785;52.260;4.728;2023-05-20T10:32:47;3.95;;;1.30;;
7487;SDS011;3785;52.260;4.728;2023-05-20T10:36:08;2.72;;;1.38;;
7487;SDS011;3785;52.260;4.728;2023-05-20T10:39:29;3.10;;;1.40;;
7487;SDS011;3785;52.260;4.728;2023-05-20T10:42:53;1.48;;;1.00;;
7487;SDS011;3785;52.260;4.728;2023-05-20T10:46:16;3.50;;;1.30;;
7487;SDS011;3785;52.260;4.728;2023-05-20T10:49:44;2.05;;;0.95;;
7487;SDS011;3785;52.260;4.728;2023-05-20T10:53:06;1.42;;;0.98;;
7487;SDS011;3785;52.260;4.728;2023-05-20T10:56:31;1.98;;;1.20;;
7487;SDS011;3785;52.260;4.728;2023-05-20T10:59:52;2.13;;;1.15;;
7487;SDS011;3785;52.260;4.728;2023-05-20T11:03:12;3.50;;;1.40;;
7487;SDS011;3785;52.260;4.728;2023-05-20T11:06:33;3.15;;;1.10;;
7487;SDS011;3785;52.260;4.728;2023-05-20T11:09:54;1.58;;;1.02;;
7487;SDS011;3785;52.260;4.728;2023-05-20T11:13:16;2.85;;;1.25;;
7487;SDS011;3785;52.260;4.728;2023-05-20T11:16:37;3.72;;;1.30;;
7487;SDS011;3785;52.260;4.728;2023-05-20T11:19:57;3.17;;;1.30;;
7487;SDS011;3785;52.260;4.728;2023-05-20T11:23:19;2.25;;;1.20;;
7487;SDS011;3785;52.260;4.728;2023-05-20T11:26:42;1.95;;;1.25;;
7487;SDS011;3785;52.260;4.728;2023-05-20T11:30:02;2.35;;;1.45;;
7487;SDS011;3785;52.260;4.728;2023-05-20T11:33:24;2.67;;;1.20;;
7487;SDS011;3785;52.260;4.728;2023-05-20T11:36:54;4.20;;;1.48;;
7487;SDS011;3785;52.260;4.728;2023-05-20T11:40:18;1.75;;;1.05;;
7487;SDS011;3785;52.260;4.728;2023-05-20T11:43:43;3.65;;;1.27;;
7487;SDS011;3785;52.260;4.728;2023-05-20T11:47:04;2.47;;;1.10;;
7487;SDS011;3785;52.260;4.728;2023-05-20T11:50:24;2.58;;;1.20;;
7487;SDS011;3785;52.260;4.728;2023-05-20T11:53:45;1.80;;;1.10;;
7487;SDS011;3785;52.260;4.728;2023-05-20T11:57:06;2.33;;;1.20;;
7487;SDS011;3785;52.260;4.728;2023-05-20T12:00:27;2.95;;;1.20;;
7487;SDS011;3785;52.260;4.728;2023-05-20T12:03:47;2.03;;;1.05;;
7487;SDS011;3785;52.260;4.728;2023-05-20T12:07:08;2.20;;;1.10;;
7487;SDS011;3785;52.260;4.728;2023-05-20T12:10:29;2.10;;;1.10;;
7487;SDS011;3785;52.260;4.728;2023-05-20T12:13:50;4.38;;;1.20;;
7487;SDS011;3785;52.260;4.728;2023-05-20T12:17:10;1.90;;;1.23;;
7487;SDS011;3785;52.260;4.728;2023-05-20T12:20:31;2.42;;;1.20;;
7487;SDS011;3785;52.260;4.728;2023-05-20T12:23:53;2.17;;;1.20;;
7487;SDS011;3785;52.260;4.728;2023-05-20T12:27:16;2.50;;;1.20;;
7487;SDS011;3785;52.260;4.728;2023-05-20T12:30:37;2.22;;;1.10;;
7487;SDS011;3785;52.260;4.728;2023-05-20T12:33:58;1.42;;;1.00;;
7487;SDS011;3785;52.260;4.728;2023-05-20T12:37:18;1.80;;;1.00;;
7487;SDS011;3785;52.260;4.728;2023-05-20T12:40:39;1.55;;;1.00;;
7487;SDS011;3785;52.260;4.728;2023-05-20T12:43:59;4.43;;;1.00;;
7487;SDS011;3785;52.260;4.728;2023-05-20T12:47:20;2.28;;;1.30;;
7487;SDS011;3785;52.260;4.728;2023-05-20T12:50:41;3.33;;;1.38;;
7487;SDS011;3785;52.260;4.728;2023-05-20T12:54:01;1.85;;;1.20;;
7487;SDS011;3785;52.260;4.728;2023-05-20T12:57:22;1.88;;;1.05;;
7487;SDS011;3785;52.260;4.728;2023-05-20T13:00:43;2.28;;;0.98;;
7487;SDS011;3785;52.260;4.728;2023-05-20T13:04:03;2.97;;;1.33;;
7487;SDS011;3785;52.260;4.728;2023-05-20T13:07:24;1.88;;;1.00;;
7487;SDS011;3785;52.260;4.728;2023-05-20T13:10:45;2.45;;;1.10;;
7487;SDS011;3785;52.260;4.728;2023-05-20T13:14:06;1.60;;;0.98;;
7487;SDS011;3785;52.260;4.728;2023-05-20T13:17:26;1.33;;;0.90;;
7487;SDS011;3785;52.260;4.728;2023-05-20T13:20:47;2.28;;;0.90;;
7487;SDS011;3785;52.260;4.728;2023-05-20T13:24:08;1.60;;;1.05;;
7487;SDS011;3785;52.260;4.728;2023-05-20T13:27:28;2.00;;;1.20;;
7487;SDS011;3785;52.260;4.728;2023-05-20T13:30:49;2.42;;;1.10;;
7487;SDS011;3785;52.260;4.728;2023-05-20T13:34:10;1.58;;;1.10;;
7487;SDS011;3785;52.260;4.728;2023-05-20T13:37:31;2.88;;;1.20;;
7487;SDS011;3785;52.260;4.728;2023-05-20T13:40:51;2.65;;;1.40;;
7487;SDS011;3785;52.260;4.728;2023-05-20T13:44:12;1.65;;;0.95;;
7487;SDS011;3785;52.260;4.728;2023-05-20T13:47:32;2.47;;;1.13;;
7487;SDS011;3785;52.260;4.728;2023-05-20T13:50:53;1.63;;;1.02;;
7487;SDS011;3785;52.260;4.728;2023-05-20T13:54:14;1.42;;;0.88;;
7487;SDS011;3785;52.260;4.728;2023-05-20T13:57:34;2.20;;;1.23;;
7487;SDS011;3785;52.260;4.728;2023-05-20T14:00:55;2.70;;;1.80;;
7487;SDS011;3785;52.260;4.728;2023-05-20T14:04:16;1.88;;;1.10;;
7487;SDS011;3785;52.260;4.728;2023-05-20T14:07:36;2.10;;;1.02;;
7487;SDS011;3785;52.260;4.728;2023-05-20T14:10:57;2.10;;;1.20;;
7487;SDS011;3785;52.260;4.728;2023-05-20T14:14:17;2.83;;;1.25;;
7487;SDS011;3785;52.260;4.728;2023-05-20T14:17:38;1.58;;;1.02;;
7487;SDS011;3785;52.260;4.728;2023-05-20T14:20:59;2.47;;;0.98;;
7487;SDS011;3785;52.260;4.728;2023-05-20T14:24:19;2.40;;;1.10;;
7487;SDS011;3785;52.260;4.728;2023-05-20T14:27:40;2.47;;;1.20;;
7487;SDS011;3785;52.260;4.728;2023-05-20T14:31:01;4.28;;;1.20;;
7487;SDS011;3785;52.260;4.728;2023-05-20T14:34:21;2.20;;;0.90;;
7487;SDS011;3785;52.260;4.728;2023-05-20T14:37:42;1.75;;;1.08;;
7487;SDS011;3785;52.260;4.728;2023-05-20T14:41:02;1.80;;;1.23;;
7487;SDS011;3785;52.260;4.728;2023-05-20T14:44:23;1.75;;;1.00;;
7487;SDS011;3785;52.260;4.728;2023-05-20T14:47:43;1.83;;;0.90;;
7487;SDS011;3785;52.260;4.728;2023-05-20T14:51:04;1.85;;;1.05;;
7487;SDS011;3785;52.260;4.728;2023-05-20T14:54:25;1.60;;;1.00;;
7487;SDS011;3785;52.260;4.728;2023-05-20T14:57:46;1.83;;;1.02;;
7487;SDS011;3785;52.260;4.728;2023-05-20T15:01:07;2.08;;;1.00;;
7487;SDS011;3785;52.260;4.728;2023-05-20T15:04:28;2.00;;;0.93;;
7487;SDS011;3785;52.260;4.728;2023-05-20T15:07:49;2.55;;;1.00;;
7487;SDS011;3785;52.260;4.728;2023-05-20T15:11:10;2.00;;;1.05;;
7487;SDS011;3785;52.260;4.728;2023-05-20T15:14:31;1.45;;;1.00;;
7487;SDS011;3785;52.260;4.728;2023-05-20T15:17:51;1.98;;;1.00;;
7487;SDS011;3785;52.260;4.728;2023-05-20T15:21:12;1.40;;;0.98;;
7487;SDS011;3785;52.260;4.728;2023-05-20T15:24:33;3.83;;;1.50;;
7487;SDS011;3785;52.260;4.728;2023-05-20T15:27:53;1.83;;;1.00;;
7487;SDS011;3785;52.260;4.728;2023-05-20T15:31:14;1.35;;;0.88;;
7487;SDS011;3785;52.260;4.728;2023-05-20T15:34:34;1.77;;;1.10;;
7487;SDS011;3785;52.260;4.728;2023-05-20T15:37:55;3.17;;;1.20;;
7487;SDS011;3785;52.260;4.728;2023-05-20T15:41:16;2.60;;;1.50;;
7487;SDS011;3785;52.260;4.728;2023-05-20T15:44:37;2.00;;;1.00;;
7487;SDS011;3785;52.260;4.728;2023-05-20T15:48:00;4.68;;;1.70;;
7487;SDS011;3785;52.260;4.728;2023-05-20T15:51:21;2.55;;;1.30;;
7487;SDS011;3785;52.260;4.728;2023-05-20T15:54:42;2.25;;;1.40;;
7487;SDS011;3785;52.260;4.728;2023-05-20T15:58:02;2.58;;;1.50;;
7487;SDS011;3785;52.260;4.728;2023-05-20T16:01:24;2.65;;;1.70;;
7487;SDS011;3785;52.260;4.728;2023-05-20T16:04:45;2.13;;;1.17;;
7487;SDS011;3785;52.260;4.728;2023-05-20T16:08:06;2.15;;;1.25;;
7487;SDS011;3785;52.260;4.728;2023-05-20T16:11:27;3.45;;;1.52;;
7487;SDS011;3785;52.260;4.728;2023-05-20T16:14:47;2.90;;;1.40;;
7487;SDS011;3785;52.260;4.728;2023-05-20T16:18:08;2.75;;;1.48;;
7487;SDS011;3785;52.260;4.728;2023-05-20T16:21:28;5.13;;;1.90;;
7487;SDS011;3785;52.260;4.728;2023-05-20T16:24:50;3.17;;;1.45;;
7487;SDS011;3785;52.260;4.728;2023-05-20T16:28:10;3.53;;;1.33;;
7487;SDS011;3785;52.260;4.728;2023-05-20T16:31:31;3.55;;;1.55;;
7487;SDS011;3785;52.260;4.728;2023-05-20T16:34:51;2.50;;;1.42;;
7487;SDS011;3785;52.260;4.728;2023-05-20T16:38:13;2.65;;;1.42;;
7487;SDS011;3785;52.260;4.728;2023-05-20T16:41:34;3.33;;;1.85;;
7487;SDS011;3785;52.260;4.728;2023-05-20T16:44:55;2.55;;;1.60;;
7487;SDS011;3785;52.260;4.728;2023-05-20T16:48:15;4.35;;;1.85;;
7487;SDS011;3785;52.260;4.728;2023-05-20T16:51:36;3.47;;;1.80;;
7487;SDS011;3785;52.260;4.728;2023-05-20T16:54:57;3.80;;;1.55;;
7487;SDS011;3785;52.260;4.728;2023-05-20T16:58:21;3.83;;;1.85;;
7487;SDS011;3785;52.260;4.728;2023-05-20T17:01:41;2.17;;;1.73;;
7487;SDS011;3785;52.260;4.728;2023-05-20T17:05:02;2.40;;;1.58;;
7487;SDS011;3785;52.260;4.728;2023-05-20T17:08:23;2.95;;;1.83;;
7487;SDS011;3785;52.260;4.728;2023-05-20T17:11:43;3.22;;;2.00;;
7487;SDS011;3785;52.260;4.728;2023-05-20T17:15:04;3.03;;;1.98;;
7487;SDS011;3785;52.260;4.728;2023-05-20T17:18:25;2.70;;;1.80;;
7487;SDS011;3785;52.260;4.728;2023-05-20T17:21:46;7.82;;;2.22;;
7487;SDS011;3785;52.260;4.728;2023-05-20T17:25:06;3.25;;;1.90;;
7487;SDS011;3785;52.260;4.728;2023-05-20T17:28:27;3.97;;;1.90;;
7487;SDS011;3785;52.260;4.728;2023-05-20T17:31:48;3.13;;;1.75;;
7487;SDS011;3785;52.260;4.728;2023-05-20T17:35:18;3.30;;;1.80;;
7487;SDS011;3785;52.260;4.728;2023-05-20T17:38:39;5.35;;;2.20;;
7487;SDS011;3785;52.260;4.728;2023-05-20T17:42:00;3.83;;;1.73;;
7487;SDS011;3785;52.260;4.728;2023-05-20T17:45:21;4.15;;;1.70;;
7487;SDS011;3785;52.260;4.728;2023-05-20T17:48:42;3.28;;;1.90;;
7487;SDS011;3785;52.260;4.728;2023-05-20T17:52:03;3.85;;;1.88;;
7487;SDS011;3785;52.260;4.728;2023-05-20T17:55:24;2.90;;;1.50;;
7487;SDS011;3785;52.260;4.728;2023-05-20T17:58:45;3.05;;;2.03;;
7487;SDS011;3785;52.260;4.728;2023-05-20T18:02:07;4.07;;;2.13;;
7487;SDS011;3785;52.260;4.728;2023-05-20T18:05:27;4.00;;;1.80;;
7487;SDS011;3785;52.260;4.728;2023-05-20T18:08:48;3.83;;;2.05;;
7487;SDS011;3785;52.260;4.728;2023-05-20T18:12:17;2.75;;;1.75;;
7487;SDS011;3785;52.260;4.728;2023-05-20T18:16:01;3.83;;;1.92;;
7487;SDS011;3785;52.260;4.728;2023-05-20T18:19:22;3.42;;;2.00;;
7487;SDS011;3785;52.260;4.728;2023-05-20T18:22:43;3.50;;;1.90;;
7487;SDS011;3785;52.260;4.728;2023-05-20T18:26:04;4.43;;;2.05;;
7487;SDS011;3785;52.260;4.728;2023-05-20T18:29:28;4.10;;;1.90;;
7487;SDS011;3785;52.260;4.728;2023-05-20T18:32:48;3.58;;;1.60;;
7487;SDS011;3785;52.260;4.728;2023-05-20T18:36:10;4.53;;;2.00;;
7487;SDS011;3785;52.260;4.728;2023-05-20T18:39:31;3.55;;;1.88;;
7487;SDS011;3785;52.260;4.728;2023-05-20T18:42:52;3.95;;;1.92;;
7487;SDS011;3785;52.260;4.728;2023-05-20T18:46:13;5.50;;;2.42;;
7487;SDS011;3785;52.260;4.728;2023-05-20T18:49:34;3.03;;;1.92;;
7487;SDS011;3785;52.260;4.728;2023-05-20T18:52:54;2.45;;;1.63;;
7487;SDS011;3785;52.260;4.728;2023-05-20T18:56:15;2.95;;;1.80;;
7487;SDS011;3785;52.260;4.728;2023-05-20T18:59:40;3.15;;;1.92;;
7487;SDS011;3785;52.260;4.728;2023-05-20T19:03:01;2.63;;;1.50;;
7487;SDS011;3785;52.260;4.728;2023-05-20T19:06:21;3.90;;;1.77;;
7487;SDS011;3785;52.260;4.728;2023-05-20T19:09:42;4.35;;;2.00;;
7487;SDS011;3785;52.260;4.728;2023-05-20T19:13:03;2.45;;;1.50;;
7487;SDS011;3785;52.260;4.728;2023-05-20T19:16:23;3.13;;;1.83;;
7487;SDS011;3785;52.260;4.728;2023-05-20T19:19:45;3.67;;;1.85;;
7487;SDS011;3785;52.260;4.728;2023-05-20T19:23:05;3.63;;;1.95;;
7487;SDS011;3785;52.260;4.728;2023-05-20T19:26:26;3.00;;;1.48;;
7487;SDS011;3785;52.260;4.728;2023-05-20T19:29:46;3.97;;;1.60;;
7487;SDS011;3785;52.260;4.728;2023-05-20T19:33:07;2.75;;;1.45;;
7487;SDS011;3785;52.260;4.728;2023-05-20T19:36:27;3.15;;;1.50;;
7487;SDS011;3785;52.260;4.728;2023-05-20T19:39:48;2.45;;;1.50;;
7487;SDS011;3785;52.260;4.728;2023-05-20T19:43:09;2.72;;;1.52;;
7487;SDS011;3785;52.260;4.728;2023-05-20T19:46:30;4.97;;;1.50;;
7487;SDS011;3785;52.260;4.728;2023-05-20T19:49:50;2.53;;;1.40;;
7487;SDS011;3785;52.260;4.728;2023-05-20T19:53:11;2.55;;;1.50;;
7487;SDS011;3785;52.260;4.728;2023-05-20T19:56:32;3.40;;;1.77;;
7487;SDS011;3785;52.260;4.728;2023-05-20T19:59:52;2.28;;;1.25;;
7487;SDS011;3785;52.260;4.728;2023-05-20T20:03:13;2.63;;;1.50;;
7487;SDS011;3785;52.260;4.728;2023-05-20T20:06:33;3.80;;;1.40;;
7487;SDS011;3785;52.260;4.728;2023-05-20T20:09:54;2.85;;;1.33;;
7487;SDS011;3785;52.260;4.728;2023-05-20T20:13:15;2.58;;;1.27;;
7487;SDS011;3785;52.260;4.728;2023-05-20T20:16:35;2.25;;;1.33;;
7487;SDS011;3785;52.260;4.728;2023-05-20T20:19:56;2.05;;;1.27;;
7487;SDS011;3785;52.260;4.728;2023-05-20T20:23:17;3.45;;;1.80;;
7487;SDS011;3785;52.260;4.728;2023-05-20T20:26:38;3.10;;;1.50;;
7487;SDS011;3785;52.260;4.728;2023-05-20T20:29:59;2.40;;;1.23;;
7487;SDS011;3785;52.260;4.728;2023-05-20T20:33:20;2.72;;;1.40;;
7487;SDS011;3785;52.260;4.728;2023-05-20T20:36:40;2.03;;;1.27;;
7487;SDS011;3785;52.260;4.728;2023-05-20T20:40:04;2.30;;;1.48;;
7487;SDS011;3785;52.260;4.728;2023-05-20T20:43:26;2.83;;;1.15;;
7487;SDS011;3785;52.260;4.728;2023-05-20T20:46:48;2.28;;;1.13;;
7487;SDS011;3785;52.260;4.728;2023-05-20T20:50:13;1.95;;;1.23;;
7487;SDS011;3785;52.260;4.728;2023-05-20T20:53:34;1.88;;;1.00;;
7487;SDS011;3785;52.260;4.728;2023-05-20T20:56:55;2.75;;;1.40;;